Time;durP1;ratioP1;P1;durP2;ratioP2;P2;SDS_P1;SDS_P2;PMS_P1;PMS_P2;Temp;Humidity;BMP_temperature;BMP_pressure;BME280_temperature;BME280_humidity;BME280_pressure;Samples;Min_cycle;Max_cycle;Signal;HPM_P1;HPM_P2
2024/03/07 00:02:18;;;;;;;12.15;5.00;;;;;;;7.35;88.79;102095.38;5072449;28;20030;-67
2024/03/07 00:04:44;;;;;;;12.32;4.30;;;;;;;7.29;89.08;102078.59;5094275;28;20028;-67
2024/03/07 00:07:09;;;;;;;14.82;4.78;;;;;;;7.35;89.08;102082.75;5074141;28;20399;-67
2024/03/07 00:09:35;;;;;;;16.42;6.35;;;;;;;7.38;88.89;102086.72;5092117;28;20122;-67
2024/03/07 00:12:02;;;;;;;10.05;4.45;;;;;;;7.33;89.36;102084.94;5090549;28;20026;-67
2024/03/07 00:14:28;;;;;;;15.75;5.45;;;;;;;7.39;89.32;102089.13;5091114;28;20059;-67
2024/03/07 00:16:55;;;;;;;11.93;4.47;;;;;;;7.42;89.26;102085.03;5056948;28;20054;-67
2024/03/07 00:19:21;;;;;;;12.48;4.93;;;;;;;7.39;89.32;102086.44;5090612;28;20020;-67
2024/03/07 00:21:47;;;;;;;16.30;5.30;;;;;;;7.51;89.22;102091.31;5075354;28;20312;-67
2024/03/07 00:24:14;;;;;;;11.45;4.90;;;;;;;7.58;89.11;102089.00;5092729;28;20023;-67
2024/03/07 00:26:40;;;;;;;13.93;4.95;;;;;;;7.55;89.58;102090.38;5086496;28;20489;-67
2024/03/07 00:29:07;;;;;;;14.50;5.28;;;;;;;7.60;89.57;102097.53;5089718;28;20062;-67
2024/03/07 00:31:33;;;;;;;12.35;5.15;;;;;;;7.68;88.80;102094.97;5090542;28;20034;-67
2024/03/07 00:33:59;;;;;;;11.90;4.03;;;;;;;7.64;89.33;102098.53;5086692;28;20032;-67
2024/03/07 00:36:24;;;;;;;16.98;5.90;;;;;;;7.65;89.51;102102.78;5070581;28;20043;-67
2024/03/07 00:38:50;;;;;;;10.43;3.92;;;;;;;7.65;89.70;102094.75;5083401;28;20409;-68
2024/03/07 00:41:17;;;;;;;13.05;4.70;;;;;;;7.60;89.55;102094.88;5088680;28;20032;-67
2024/03/07 00:43:43;;;;;;;14.65;4.63;;;;;;;7.61;90.19;102085.72;5087063;28;20045;-68
2024/03/07 00:46:10;;;;;;;7.90;3.78;;;;;;;7.51;90.45;102088.63;5091272;28;20115;-66
2024/03/07 00:48:36;;;;;;;12.88;4.95;;;;;;;7.47;91.45;102091.09;5076668;28;20088;-66
2024/03/07 00:51:04;;;;;;;10.18;4.30;;;;;;;7.55;91.36;102092.31;5087031;28;20020;-66
2024/03/07 00:53:30;;;;;;;13.48;4.65;;;;;;;7.63;91.38;102096.94;5076565;28;20032;-66
2024/03/07 00:55:56;;;;;;;12.48;5.00;;;;;;;7.68;91.09;102086.13;5122620;27;20024;-67
2024/03/07 00:58:21;;;;;;;16.40;5.50;;;;;;;7.75;90.83;102089.19;5090600;28;20036;-66
2024/03/07 01:00:47;;;;;;;11.60;4.60;;;;;;;7.66;90.76;102082.94;5074472;28;20031;-66
2024/03/07 01:03:13;;;;;;;12.38;5.15;;;;;;;7.67;91.16;102077.28;5089696;28;20036;-66
2024/03/07 01:05:42;;;;;;;9.88;4.18;;;;;;;7.71;91.27;102085.50;5091929;28;20043;-67
2024/03/07 01:08:08;;;;;;;15.07;5.78;;;;;;;7.71;91.22;102082.84;5088129;28;20023;-67
2024/03/07 01:10:34;;;;;;;11.50;4.45;;;;;;;7.69;91.50;102080.47;5122086;27;20516;-67
2024/03/07 01:13:01;;;;;;;9.57;4.20;;;;;;;7.54;91.43;102075.41;5091358;28;20024;-67
2024/03/07 01:15:28;;;;;;;12.70;4.78;;;;;;;7.52;92.12;102082.97;5076530;28;20070;-66
2024/03/07 01:17:53;;;;;;;11.85;4.93;;;;;;;7.63;91.81;102078.97;5087601;28;20073;-66
2024/03/07 01:20:19;;;;;;;12.07;6.10;;;;;;;7.62;92.35;102073.91;5088136;28;20020;-69
2024/03/07 01:22:45;;;;;;;11.95;4.53;;;;;;;7.63;92.06;102065.56;5087456;28;20027;-66
2024/03/07 01:25:12;;;;;;;14.50;5.30;;;;;;;7.68;91.91;102060.13;5072318;28;20040;-67
2024/03/07 01:27:38;;;;;;;15.50;4.60;;;;;;;7.74;91.93;102066.16;5085701;28;20540;-67
2024/03/07 01:30:07;;;;;;;16.45;7.13;;;;;;;7.66;92.50;102059.63;5088935;28;20097;-66
2024/03/07 01:32:33;;;;;;;17.45;5.55;;;;;;;7.71;91.53;102066.75;5088176;28;20046;-66
2024/03/07 01:34:59;;;;;;;12.77;5.43;;;;;;;7.67;92.46;102071.13;5070560;28;20582;-67
2024/03/07 01:37:25;;;;;;;12.93;4.68;;;;;;;7.75;92.15;102063.19;5089337;28;20130;-67
2024/03/07 01:39:50;;;;;;;18.13;4.90;;;;;;;7.72;92.27;102054.94;5108292;27;20484;-67
2024/03/07 01:42:16;;;;;;;16.10;5.32;;;;;;;7.80;91.64;102054.25;5094893;28;20035;-66
2024/03/07 01:44:43;;;;;;;10.25;5.10;;;;;;;7.69;91.84;102053.66;5093656;28;20408;-66
2024/03/07 01:47:10;;;;;;;16.25;5.70;;;;;;;7.71;92.20;102056.81;5096246;28;20113;-66
2024/03/07 01:49:36;;;;;;;15.10;5.72;;;;;;;7.64;92.50;102061.00;5077817;28;20063;-67
2024/03/07 01:52:04;;;;;;;13.18;5.03;;;;;;;7.68;91.86;102052.06;5092217;28;20289;-66
2024/03/07 01:54:30;;;;;;;10.73;4.40;;;;;;;7.64;92.56;102050.28;5092857;28;20058;-66
2024/03/07 01:56:56;;;;;;;11.32;4.45;;;;;;;7.63;92.80;102060.22;5092996;28;20055;-67
2024/03/07 01:59:24;;;;;;;16.85;4.85;;;;;;;7.64;92.86;102059.13;5079126;28;20024;-66
2024/03/07 02:01:50;;;;;;;14.10;4.85;;;;;;;7.59;93.10;102055.78;5090117;28;20055;-66
2024/03/07 02:04:16;;;;;;;12.73;4.55;;;;;;;7.64;93.27;102064.50;5073198;28;20201;-66
2024/03/07 02:06:42;;;;;;;10.43;4.93;;;;;;;7.74;92.49;102052.75;5090324;28;20024;-67
2024/03/07 02:09:08;;;;;;;10.93;4.60;;;;;;;7.81;92.10;102056.63;5089395;28;20572;-67
2024/03/07 02:11:33;;;;;;;17.48;5.03;;;;;;;7.78;92.03;102057.19;5088465;28;20111;-66
2024/03/07 02:13:59;;;;;;;13.15;5.05;;;;;;;7.73;92.02;102056.53;5094358;28;20023;-67
2024/03/07 02:16:25;;;;;;;15.00;4.95;;;;;;;7.74;92.95;102055.44;5099028;28;20138;-69
2024/03/07 02:18:51;;;;;;;15.25;4.65;;;;;;;7.78;92.48;102051.06;5073290;28;20024;-66
2024/03/07 02:21:16;;;;;;;10.90;5.55;;;;;;;7.76;92.31;102053.25;5089604;28;20489;-69
2024/03/07 02:23:43;;;;;;;11.90;4.93;;;;;;;7.74;92.29;102050.06;5072618;28;20622;-66
2024/03/07 02:26:09;;;;;;;17.05;5.07;;;;;;;7.70;92.94;102054.44;5091378;28;20058;-67
2024/03/07 02:28:35;;;;;;;16.85;5.10;;;;;;;7.79;92.39;102045.41;5086762;28;20019;-66
2024/03/07 02:31:01;;;;;;;14.10;5.13;;;;;;;7.74;92.72;102045.50;5088608;28;20035;-67
2024/03/07 02:33:27;;;;;;;17.30;5.03;;;;;;;7.73;92.41;102046.59;5091902;28;20116;-66
2024/03/07 02:35:53;;;;;;;13.13;4.40;;;;;;;7.62;92.60;102036.41;5090682;28;20780;-67
2024/03/07 02:38:19;;;;;;;17.88;5.47;;;;;;;7.64;92.99;102037.69;5094344;28;20034;-66
2024/03/07 02:40:46;;;;;;;7.70;3.80;;;;;;;7.69;92.58;102040.25;5123530;27;20020;-67
2024/03/07 02:43:12;;;;;;;17.08;4.82;;;;;;;7.68;92.45;102029.84;5091199;28;20031;-66
2024/03/07 02:45:38;;;;;;;13.40;5.10;;;;;;;7.62;92.61;102042.56;5090317;28;20020;-67
2024/03/07 02:48:09;;;;;;;10.93;4.20;;;;;;;7.65;92.53;102035.78;5079090;28;20093;-66
2024/03/07 02:50:39;;;;;;;8.50;3.63;;;;;;;7.64;92.16;102026.16;5092843;28;20151;-67
2024/03/07 02:53:04;;;;;;;10.23;4.65;;;;;;;7.60;92.67;102033.22;5097615;28;20032;-67
2024/03/07 02:55:33;;;;;;;15.00;4.68;;;;;;;7.63;92.58;102029.91;5090975;28;20030;-67
2024/03/07 02:57:59;;;;;;;18.48;5.50;;;;;;;7.67;92.22;102023.66;5091191;28;20069;-67
2024/03/07 03:00:29;;;;;;;14.60;4.25;;;;;;;7.52;92.47;102026.69;5092799;28;20019;-67
2024/03/07 03:02:58;;;;;;;8.32;3.28;;;;;;;7.66;91.96;102032.03;5088492;28;20081;-66
2024/03/07 03:05:24;;;;;;;8.15;3.65;;;;;;;7.71;91.44;102037.25;5089754;28;20028;-67
2024/03/07 03:07:53;;;;;;;9.50;3.85;;;;;;;7.60;91.87;102035.91;5070846;28;20059;-66
2024/03/07 03:10:25;;;;;;;12.48;4.57;;;;;;;7.50;91.94;102030.75;5071317;28;20128;-67
2024/03/07 03:13:00;;;;;;;12.43;5.10;;;;;;;7.52;92.23;102029.34;5078217;28;20051;-67
2024/03/07 03:15:27;;;;;;;8.65;4.20;;;;;;;7.57;91.96;102029.25;5106076;27;20032;-66
2024/03/07 03:17:52;;;;;;;11.50;4.35;;;;;;;7.68;91.41;102019.09;5087532;28;20115;-67
2024/03/07 03:20:24;;;;;;;9.75;4.32;;;;;;;7.61;91.26;102021.38;5072056;28;20985;-67
2024/03/07 03:22:53;;;;;;;9.43;4.00;;;;;;;7.60;90.72;102023.28;5075132;28;20459;-67
2024/03/07 03:25:20;;;;;;;12.35;4.78;;;;;;;7.70;90.87;102024.97;5086064;28;20024;-66
2024/03/07 03:27:49;;;;;;;8.60;4.53;;;;;;;7.63;91.01;102029.91;5090294;28;20059;-66
2024/03/07 03:30:18;;;;;;;9.07;3.67;;;;;;;7.58;91.24;102030.03;5090577;28;20026;-67
2024/03/07 03:32:49;;;;;;;19.30;5.32;;;;;;;7.43;91.28;102030.38;5089861;28;20035;-66
2024/03/07 03:35:15;;;;;;;12.32;3.13;;;;;;;7.44;91.33;102021.22;5092653;28;20028;-67
2024/03/07 03:37:44;;;;;;;16.25;4.75;;;;;;;7.46;91.00;102021.72;5087924;28;20024;-67
2024/03/07 03:40:10;;;;;;;8.30;3.30;;;;;;;7.34;92.20;102013.41;5072996;28;20035;-66
2024/03/07 03:42:37;;;;;;;10.98;3.90;;;;;;;7.38;92.20;102025.09;5072509;28;20034;-66
2024/03/07 03:45:14;;;;;;;14.73;4.85;;;;;;;7.41;90.91;102022.63;5090511;28;20131;-66
2024/03/07 03:47:41;;;;;;;12.32;5.07;;;;;;;7.13;92.91;102013.00;5090061;28;20064;-66
2024/03/07 03:50:08;;;;;;;10.88;4.22;;;;;;;7.29;91.72;102016.97;5091101;28;20020;-67
2024/03/07 03:52:37;;;;;;;15.65;4.53;;;;;;;7.28;90.94;102024.22;5074790;28;20118;-67
2024/03/07 03:55:06;;;;;;;10.00;3.58;;;;;;;7.22;91.17;102017.38;5088546;28;20039;-67
2024/03/07 03:57:34;;;;;;;11.82;4.07;;;;;;;6.90;92.10;102025.50;5093166;28;20028;-66
2024/03/07 04:00:00;;;;;;;9.15;4.18;;;;;;;7.11;92.08;102021.34;5088917;28;20027;-66
2024/03/07 04:02:26;;;;;;;12.02;4.13;;;;;;;7.23;91.53;102026.19;5091334;28;20038;-66
2024/03/07 04:04:52;;;;;;;10.32;4.32;;;;;;;7.20;91.23;102029.50;5076847;28;20119;-66
2024/03/07 04:07:19;;;;;;;11.80;4.47;;;;;;;7.28;90.00;102021.53;5076825;28;20233;-66
2024/03/07 04:09:45;;;;;;;12.05;4.53;;;;;;;7.27;90.48;102035.22;5074009;28;20043;-66
2024/03/07 04:12:12;;;;;;;7.43;3.67;;;;;;;7.22;90.44;102021.91;5076369;28;20039;-67
2024/03/07 04:14:42;;;;;;;7.57;3.70;;;;;;;7.14;90.62;102025.31;5072952;28;20031;-66
2024/03/07 04:17:12;;;;;;;11.65;4.43;;;;;;;7.17;90.02;102020.16;5092718;28;20026;-67
2024/03/07 04:19:40;;;;;;;11.63;5.10;;;;;;;7.20;89.76;102024.91;5128838;27;20035;-67
2024/03/07 04:22:09;;;;;;;12.95;4.07;;;;;;;7.28;89.61;102021.53;5088274;28;20022;-67
2024/03/07 04:24:35;;;;;;;13.07;5.28;;;;;;;7.26;89.45;102023.72;5092072;28;20023;-67
2024/03/07 04:27:04;;;;;;;10.60;4.47;;;;;;;7.27;89.40;102021.84;5074872;28;20044;-67
2024/03/07 04:29:32;;;;;;;12.30;4.53;;;;;;;7.36;88.40;102030.75;5076525;28;20114;-67
2024/03/07 04:31:58;;;;;;;10.15;4.10;;;;;;;7.35;88.95;102033.75;5095378;28;20492;-66
2024/03/07 04:34:24;;;;;;;9.43;3.65;;;;;;;7.05;88.89;102027.88;5094575;28;20028;-66
2024/03/07 04:36:50;;;;;;;9.27;4.25;;;;;;;6.95;88.89;102027.28;5079672;28;20089;-66
2024/03/07 04:39:32;;;;;;;9.52;3.60;;;;;;;6.94;88.52;102023.81;5092286;28;20035;-67
2024/03/07 04:42:00;;;;;;;8.32;3.67;;;;;;;7.17;86.94;102032.75;5098017;28;20035;-67
2024/03/07 04:44:26;;;;;;;8.98;4.60;;;;;;;7.28;85.76;102034.13;5094678;28;20488;-67
2024/03/07 04:46:55;;;;;;;8.82;3.58;;;;;;;7.13;85.53;102035.22;5093365;28;20031;-66
2024/03/07 04:49:25;;;;;;;6.68;4.00;;;;;;;7.19;85.36;102031.38;5088303;28;20059;-66
2024/03/07 04:51:52;;;;;;;8.95;3.92;;;;;;;7.14;85.10;102022.63;5073249;28;20031;-66
2024/03/07 04:54:21;;;;;;;11.10;3.65;;;;;;;7.14;85.01;102031.44;5084762;28;20031;-67
2024/03/07 04:56:48;;;;;;;9.73;4.68;;;;;;;7.29;85.30;102036.53;5087612;28;20082;-66
2024/03/07 04:59:14;;;;;;;7.30;4.03;;;;;;;7.02;85.46;102030.38;5089576;28;20050;-66
2024/03/07 05:01:40;;;;;;;9.82;3.28;;;;;;;6.98;85.70;102030.16;5078044;28;20036;-67
2024/03/07 05:04:06;;;;;;;13.38;3.97;;;;;;;7.16;85.11;102033.84;5087012;28;20035;-67
2024/03/07 05:06:35;;;;;;;10.90;4.75;;;;;;;7.09;85.22;102030.75;5088281;28;20112;-66
2024/03/07 05:09:02;;;;;;;7.60;4.00;;;;;;;7.03;84.94;102024.69;5082001;28;20039;-67
2024/03/07 05:11:29;;;;;;;9.35;3.33;;;;;;;6.92;85.37;102030.53;5115248;27;20040;-67
2024/03/07 05:13:55;;;;;;;10.30;3.75;;;;;;;6.93;85.33;102034.81;5094841;28;20043;-67
2024/03/07 05:16:20;;;;;;;10.02;3.90;;;;;;;6.92;84.78;102027.88;5095028;28;20031;-67
2024/03/07 05:18:50;;;;;;;15.65;4.47;;;;;;;6.92;84.36;102034.03;5091564;28;20028;-67
2024/03/07 05:21:38;;;;;;;9.95;3.95;;;;;;;6.88;84.03;102026.88;5088865;28;20204;-66
2024/03/07 05:24:04;;;;;;;13.02;3.88;;;;;;;6.96;84.33;102044.94;5082686;28;20035;-66
2024/03/07 05:26:34;;;;;;;8.07;3.35;;;;;;;6.90;83.70;102038.88;5075276;28;20960;-67
2024/03/07 05:29:09;;;;;;;10.88;4.40;;;;;;;7.00;84.01;102046.72;5093584;28;20582;-67
2024/03/07 05:31:37;;;;;;;7.93;3.42;;;;;;;6.89;83.36;102044.53;5092567;28;20047;-67
2024/03/07 05:34:08;;;;;;;12.38;3.65;;;;;;;6.98;83.25;102051.59;5094941;28;20052;-66
2024/03/07 05:36:43;;;;;;;8.15;4.43;;;;;;;6.99;82.81;102050.47;5092875;28;20495;-67
2024/03/07 05:39:10;;;;;;;8.23;4.15;;;;;;;6.99;81.51;102055.03;5121250;27;20022;-67
2024/03/07 05:41:40;;;;;;;11.02;3.80;;;;;;;6.75;82.26;102055.22;5122377;27;20038;-66
2024/03/07 05:44:08;;;;;;;8.27;3.50;;;;;;;6.75;81.50;102067.78;5091313;28;20032;-67
2024/03/07 05:46:41;;;;;;;7.97;3.72;;;;;;;6.76;81.67;102061.34;5095180;28;20048;-66
2024/03/07 05:49:07;;;;;;;6.65;3.58;;;;;;;6.70;81.67;102068.66;5092157;28;20071;-67
2024/03/07 05:51:33;;;;;;;8.55;3.40;;;;;;;6.69;82.21;102053.72;5087637;28;20032;-67
2024/03/07 05:53:59;;;;;;;6.10;3.17;;;;;;;6.59;81.50;102061.09;5083386;28;20042;-67
2024/03/07 05:56:24;;;;;;;8.15;3.45;;;;;;;6.37;81.77;102065.19;5087890;28;20574;-67
2024/03/07 05:58:51;;;;;;;7.18;3.85;;;;;;;6.53;81.80;102062.25;5089437;28;20062;-67
2024/03/07 06:01:18;;;;;;;8.30;3.88;;;;;;;6.56;81.60;102069.72;5091515;28;20036;-66
2024/03/07 06:03:45;;;;;;;9.63;3.80;;;;;;;6.43;81.15;102076.59;5092890;28;20447;-66
2024/03/07 06:06:12;;;;;;;9.25;4.30;;;;;;;6.44;81.39;102072.84;5076906;28;20178;-67
2024/03/07 06:08:38;;;;;;;14.93;4.40;;;;;;;6.55;80.79;102066.25;5096139;27;20063;-66
2024/03/07 06:11:05;;;;;;;9.05;3.55;;;;;;;6.52;80.18;102074.88;5095770;28;20093;-66
2024/03/07 06:13:31;;;;;;;6.65;3.75;;;;;;;6.54;80.88;102080.72;5089144;27;20046;-66
2024/03/07 06:15:56;;;;;;;7.82;3.05;;;;;;;6.59;80.34;102069.13;5092990;28;20032;-67
2024/03/07 06:18:22;;;;;;;7.22;3.22;;;;;;;6.42;80.08;102077.69;5085011;28;20098;-67
2024/03/07 06:20:48;;;;;;;6.30;3.25;;;;;;;6.48;80.17;102073.88;5094201;28;20107;-67
2024/03/07 06:23:15;;;;;;;9.73;3.65;;;;;;;6.51;79.95;102075.13;5093572;28;20035;-67
2024/03/07 06:25:50;;;;;;;11.65;4.00;;;;;;;6.56;79.77;102083.91;5089904;28;20032;-67
2024/03/07 06:28:16;;;;;;;9.85;3.83;;;;;;;6.47;79.23;102077.59;5087984;28;20087;-67
2024/03/07 06:30:44;;;;;;;8.30;2.92;;;;;;;6.35;79.60;102082.59;5086827;28;20028;-67
2024/03/07 06:33:10;;;;;;;7.53;3.78;;;;;;;6.22;79.60;102089.50;5083812;28;20111;-68
2024/03/07 06:35:39;;;;;;;11.93;3.30;;;;;;;6.25;79.51;102090.81;5088436;28;20027;-68
2024/03/07 06:38:09;;;;;;;8.90;3.58;;;;;;;6.13;79.63;102090.44;5093406;28;20020;-67
2024/03/07 06:40:42;;;;;;;6.50;2.85;;;;;;;6.13;79.86;102091.25;5071234;28;20493;-67
2024/03/07 06:43:10;;;;;;;4.20;2.40;;;;;;;6.11;79.66;102101.44;5085434;28;20046;-67
2024/03/07 06:45:39;;;;;;;6.07;3.22;;;;;;;6.28;78.98;102100.91;5089012;28;20081;-66
2024/03/07 06:48:08;;;;;;;4.57;2.97;;;;;;;6.16;79.00;102101.34;5086400;28;20114;-66
2024/03/07 06:50:37;;;;;;;5.63;3.33;;;;;;;6.14;80.33;102094.69;5086939;28;20035;-67
2024/03/07 06:53:09;;;;;;;8.60;3.55;;;;;;;6.19;79.06;102108.00;5087281;28;20049;-67
2024/03/07 06:55:35;;;;;;;7.32;3.38;;;;;;;6.16;79.54;102105.88;5077460;28;20068;-67
2024/03/07 06:58:00;;;;;;;5.55;3.03;;;;;;;6.07;79.79;102096.94;5069644;28;20043;-67
2024/03/07 07:00:26;;;;;;;4.63;2.67;;;;;;;6.05;78.77;102110.59;5080379;28;20550;-67
2024/03/07 07:02:54;;;;;;;7.05;2.95;;;;;;;6.28;78.27;102111.63;5094572;27;20036;-67
2024/03/07 07:05:20;;;;;;;5.10;3.15;;;;;;;5.95;78.54;102107.25;5086672;28;20067;-67
2024/03/07 07:07:46;;;;;;;12.00;3.22;;;;;;;5.93;78.47;102112.91;5084401;28;20047;-67
2024/03/07 07:10:18;;;;;;;8.13;3.38;;;;;;;5.85;78.66;102102.03;5091493;28;21450;-66
2024/03/07 07:12:48;;;;;;;11.73;3.42;;;;;;;5.95;78.26;102110.72;5078379;28;20028;-66
2024/03/07 07:15:21;;;;;;;5.65;2.80;;;;;;;5.97;78.77;102118.44;5066806;28;20024;-66
2024/03/07 07:17:50;;;;;;;7.93;3.03;;;;;;;6.02;78.09;102113.06;5066003;28;20036;-66
2024/03/07 07:20:17;;;;;;;4.22;2.33;;;;;;;6.15;78.65;102107.00;5088094;28;20863;-67
2024/03/07 07:22:43;;;;;;;5.05;2.63;;;;;;;6.22;78.08;102112.75;5084329;28;20038;-67
2024/03/07 07:25:15;;;;;;;13.18;3.05;;;;;;;6.36;76.79;102125.13;5069685;28;20058;-67
2024/03/07 07:27:44;;;;;;;7.50;2.92;;;;;;;6.39;76.83;102116.53;5086489;28;20063;-67
2024/03/07 07:30:11;;;;;;;6.47;3.10;;;;;;;6.31;76.45;102119.03;5086413;28;20043;-67
2024/03/07 07:32:37;;;;;;;8.60;3.90;;;;;;;6.38;75.64;102112.28;5088229;28;20044;-66
2024/03/07 07:35:03;;;;;;;7.22;3.70;;;;;;;6.27;75.35;102113.47;5068546;28;20093;-67
2024/03/07 07:37:28;;;;;;;5.32;2.78;;;;;;;6.25;75.13;102123.69;5085505;28;20055;-67
2024/03/07 07:39:54;;;;;;;7.03;3.28;;;;;;;5.99;75.54;102118.97;5062380;28;20066;-67
2024/03/07 07:42:20;;;;;;;4.50;2.60;;;;;;;5.71;77.01;102122.50;5069762;28;20053;-67
2024/03/07 07:44:45;;;;;;;6.90;3.38;;;;;;;5.89;77.04;102111.88;5067761;28;20073;-67
2024/03/07 07:47:11;;;;;;;9.60;3.08;;;;;;;6.12;76.44;102110.22;5082421;28;20052;-67
2024/03/07 07:49:38;;;;;;;6.68;3.65;;;;;;;6.12;76.55;102115.56;5080154;28;20122;-67
2024/03/07 07:52:04;;;;;;;4.75;2.88;;;;;;;6.01;76.94;102114.94;5074240;28;20384;-67
2024/03/07 07:54:30;;;;;;;11.13;3.00;;;;;;;6.27;75.62;102115.38;5087409;28;20085;-67
2024/03/07 07:56:55;;;;;;;10.55;4.00;;;;;;;6.23;74.96;102117.81;5067531;28;20492;-67
2024/03/07 07:59:21;;;;;;;6.90;2.92;;;;;;;6.16;74.73;102117.41;5090127;28;20081;-67
2024/03/07 08:01:46;;;;;;;7.90;3.13;;;;;;;6.02;74.91;102111.16;5090585;28;20036;-67
2024/03/07 08:04:12;;;;;;;9.20;3.78;;;;;;;6.16;74.62;102113.91;5069907;28;20119;-67
2024/03/07 08:06:37;;;;;;;5.40;2.75;;;;;;;5.98;74.22;102114.72;5101786;28;20236;-67
2024/03/07 08:09:06;;;;;;;10.77;3.35;;;;;;;6.00;73.94;102112.56;5092319;28;20044;-67
2024/03/07 08:11:32;;;;;;;7.68;3.17;;;;;;;5.93;73.71;102109.41;5086548;28;20102;-67
2024/03/07 08:13:58;;;;;;;10.90;3.38;;;;;;;5.75;74.05;102115.50;5072277;28;20024;-67
2024/03/07 08:16:24;;;;;;;13.45;3.50;;;;;;;5.81;75.19;102109.81;5080145;28;20024;-67
2024/03/07 08:18:49;;;;;;;3.92;2.25;;;;;;;5.96;74.77;102106.97;5087223;28;20031;-67
2024/03/07 08:21:15;;;;;;;9.40;3.78;;;;;;;6.20;74.34;102112.25;5071793;28;20535;-67
2024/03/07 08:23:41;;;;;;;6.90;2.88;;;;;;;6.35;73.67;102107.47;5085998;28;20043;-67
2024/03/07 08:26:06;;;;;;;5.43;2.53;;;;;;;6.47;74.25;102107.03;5088357;28;20046;-66
2024/03/07 08:28:32;;;;;;;9.30;3.30;;;;;;;6.39;72.85;102116.53;5077788;28;20028;-66
2024/03/07 08:30:59;;;;;;;6.22;3.42;;;;;;;6.39;74.11;102108.50;5086926;28;20039;-67
2024/03/07 08:33:24;;;;;;;6.28;2.95;;;;;;;6.63;72.78;102107.59;5089523;28;20031;-67
2024/03/07 08:35:52;;;;;;;8.73;3.25;;;;;;;6.60;72.71;102114.31;5086096;28;20047;-67
2024/03/07 08:38:18;;;;;;;6.10;2.80;;;;;;;6.75;73.17;102110.63;5065689;28;20553;-66
2024/03/07 08:40:44;;;;;;;7.95;3.50;;;;;;;6.71;72.91;102113.09;5078907;28;20115;-67
2024/03/07 08:43:10;;;;;;;8.43;2.90;;;;;;;6.63;73.41;102105.72;5065137;28;20031;-67
2024/03/07 08:45:35;;;;;;;8.18;2.58;;;;;;;6.78;73.14;102099.31;5083006;28;20072;-66
2024/03/07 08:48:03;;;;;;;5.00;2.55;;;;;;;6.61;74.13;102107.91;5065724;28;20577;-67
2024/03/07 08:50:29;;;;;;;4.70;2.97;;;;;;;6.71;73.44;102097.03;5067125;28;21435;-67
2024/03/07 08:52:55;;;;;;;6.75;3.17;;;;;;;6.74;73.79;102101.00;5078338;28;20047;-67
2024/03/07 08:55:24;;;;;;;9.13;2.83;;;;;;;6.72;74.83;102103.97;5062964;28;20032;-67
2024/03/07 08:57:51;;;;;;;7.80;3.70;;;;;;;6.70;75.24;102106.13;5082475;28;20039;-67
2024/03/07 09:00:23;;;;;;;13.57;4.05;;;;;;;6.57;76.66;102093.50;5086344;28;20076;-67
2024/03/07 09:02:52;;;;;;;7.35;2.75;;;;;;;6.84;75.71;102093.59;5093445;28;20054;-66
2024/03/07 09:05:17;;;;;;;8.18;3.40;;;;;;;6.63;77.86;102095.03;5087336;28;20047;-66
2024/03/07 09:07:44;;;;;;;10.23;3.30;;;;;;;6.62;78.29;102096.09;5068906;28;20520;-66
2024/03/07 09:10:10;;;;;;;8.38;3.03;;;;;;;6.67;77.89;102101.38;5082439;28;20039;-67
2024/03/07 09:12:36;;;;;;;7.72;3.30;;;;;;;6.73;78.32;102094.88;5086099;28;20659;-67
2024/03/07 09:15:05;;;;;;;6.20;3.08;;;;;;;6.84;77.21;102093.59;5089755;28;20051;-67
2024/03/07 09:17:31;;;;;;;9.00;4.00;;;;;;;6.56;79.43;102088.47;5055594;28;20218;-67
2024/03/07 09:19:57;;;;;;;7.90;3.60;;;;;;;6.84;78.02;102090.13;5062023;28;20041;-67
2024/03/07 09:22:22;;;;;;;9.32;3.90;;;;;;;6.84;78.60;102095.47;5066047;28;20495;-67
2024/03/07 09:24:48;;;;;;;3.80;2.72;;;;;;;6.81;78.69;102091.53;5081242;28;20815;-67
2024/03/07 09:27:15;;;;;;;20.88;3.63;;;;;;;6.91;78.04;102091.31;5061974;28;20039;-66
2024/03/07 09:29:41;;;;;;;6.15;2.95;;;;;;;6.71;78.78;102086.34;5084227;28;20035;-67
2024/03/07 09:32:10;;;;;;;7.10;2.90;;;;;;;6.87;78.68;102084.19;5059444;28;20032;-67
2024/03/07 09:34:36;;;;;;;9.07;3.65;;;;;;;6.88;79.02;102091.94;5086001;28;20032;-67
2024/03/07 09:37:06;;;;;;;13.68;3.92;;;;;;;6.93;79.18;102094.50;5086556;28;20032;-66
2024/03/07 09:39:34;;;;;;;11.50;4.00;;;;;;;7.03;78.94;102093.53;5086635;28;20032;-67
2024/03/07 09:42:09;;;;;;;8.48;3.58;;;;;;;6.96;79.08;102079.75;5068517;28;20408;-67
2024/03/07 09:44:39;;;;;;;7.95;3.42;;;;;;;7.04;78.71;102084.41;5080821;28;20043;-67
2024/03/07 09:47:05;;;;;;;8.68;3.60;;;;;;;7.05;78.87;102084.13;5086339;28;20403;-67
2024/03/07 09:49:35;;;;;;;8.00;3.55;;;;;;;7.13;79.04;102090.66;5077917;28;20031;-67
2024/03/07 09:52:11;;;;;;;8.20;4.00;;;;;;;7.14;79.36;102082.34;5085732;28;20047;-67
2024/03/07 09:54:37;;;;;;;11.10;3.67;;;;;;;7.18;78.56;102085.25;5084106;28;20393;-67
2024/03/07 09:57:07;;;;;;;7.63;3.80;;;;;;;7.26;78.56;102081.84;5061453;28;20024;-67
2024/03/07 09:59:41;;;;;;;7.72;3.25;;;;;;;7.35;79.05;102095.38;5091747;28;20024;-66
2024/03/07 10:02:09;;;;;;;7.75;3.83;;;;;;;7.52;79.19;102079.47;5071835;28;20132;-67
2024/03/07 10:04:47;;;;;;;9.95;4.28;;;;;;;7.78;78.66;102077.88;5085165;28;20032;-66
2024/03/07 10:07:13;;;;;;;8.93;3.78;;;;;;;7.92;78.26;102079.44;5103225;27;20089;-66
2024/03/07 10:09:40;;;;;;;6.95;3.63;;;;;;;8.09;76.94;102076.13;5089760;28;20030;-67
2024/03/07 10:12:09;;;;;;;7.88;3.83;;;;;;;8.21;76.60;102076.38;5087985;28;20067;-67
2024/03/07 10:14:36;;;;;;;16.08;4.70;;;;;;;8.36;75.96;102073.38;5089685;28;20040;-67
2024/03/07 10:17:03;;;;;;;9.65;3.70;;;;;;;8.31;75.95;102083.41;5089652;28;20028;-67
2024/03/07 10:19:29;;;;;;;8.13;3.85;;;;;;;8.28;75.53;102066.06;5085701;28;20056;-67
2024/03/07 10:21:59;;;;;;;10.60;4.32;;;;;;;8.37;75.05;102068.78;5085857;28;20067;-67
2024/03/07 10:24:25;;;;;;;8.57;3.27;;;;;;;8.25;74.17;102066.66;5075799;28;20032;-67
2024/03/07 10:26:50;;;;;;;9.52;3.67;;;;;;;8.21;74.35;102069.13;5072384;28;20131;-67
2024/03/07 10:29:18;;;;;;;7.70;3.08;;;;;;;8.19;75.50;102076.69;5090117;28;20062;-67
2024/03/07 10:31:45;;;;;;;8.07;3.47;;;;;;;8.33;74.98;102071.28;5086334;28;20961;-67
2024/03/07 10:34:11;;;;;;;10.50;4.43;;;;;;;8.31;75.14;102070.81;5089734;27;20062;-67
2024/03/07 10:36:37;;;;;;;8.20;3.58;;;;;;;8.43;74.96;102076.44;5087723;28;20040;-67
2024/03/07 10:39:12;;;;;;;9.20;4.05;;;;;;;8.23;75.00;102061.56;5086613;28;20414;-67
2024/03/07 10:41:44;;;;;;;7.68;4.15;;;;;;;8.28;75.32;102060.69;5089283;28;20040;-66
2024/03/07 10:44:13;;;;;;;6.80;3.58;;;;;;;8.39;74.97;102066.59;5088461;28;20036;-67
2024/03/07 10:46:40;;;;;;;9.20;3.70;;;;;;;8.34;75.53;102064.84;5102750;28;20040;-66
2024/03/07 10:49:15;;;;;;;9.93;3.97;;;;;;;8.52;75.01;102066.53;5085911;28;20089;-67
2024/03/07 10:51:47;;;;;;;12.23;5.07;;;;;;;8.53;74.82;102051.22;5082511;28;20310;-66
2024/03/07 10:54:20;;;;;;;13.02;3.75;;;;;;;8.29;75.18;102048.84;5065636;28;20554;-67
2024/03/07 10:57:32;;;;;;;13.40;4.25;;;;;;;8.49;75.27;102058.31;5096256;28;20050;-67
2024/03/07 11:00:11;;;;;;;11.35;4.15;;;;;;;8.66;74.67;102050.34;5084225;28;20123;-67
2024/03/07 11:02:46;;;;;;;8.18;3.67;;;;;;;8.63;74.34;102061.72;5088221;28;20699;-67
2024/03/07 11:05:15;;;;;;;14.05;3.80;;;;;;;8.61;74.40;102051.28;5084525;28;20043;-67
2024/03/07 11:07:41;;;;;;;11.50;4.30;;;;;;;8.55;74.97;102055.19;5073136;28;20027;-67
2024/03/07 11:10:11;;;;;;;10.05;4.45;;;;;;;8.69;74.70;102055.91;5088701;28;20582;-67
2024/03/07 11:12:40;;;;;;;11.18;3.97;;;;;;;8.72;74.49;102058.00;5084127;28;20038;-67
2024/03/07 11:15:14;;;;;;;13.38;3.85;;;;;;;8.58;74.92;102053.78;5071234;28;20028;-67
2024/03/07 11:17:50;;;;;;;5.78;3.20;;;;;;;8.81;75.27;102058.03;5088162;28;20540;-67
2024/03/07 11:20:23;;;;;;;8.43;4.03;;;;;;;8.95;74.31;102056.03;5091801;28;20051;-67
2024/03/07 11:22:50;;;;;;;10.18;4.10;;;;;;;8.98;74.31;102056.22;5086640;28;20023;-67
2024/03/07 11:25:19;;;;;;;11.65;4.05;;;;;;;8.87;73.89;102046.84;5103293;27;20493;-67
2024/03/07 11:27:53;;;;;;;16.25;5.25;;;;;;;8.88;74.16;102047.66;5087590;28;20047;-67
2024/03/07 11:30:21;;;;;;;8.38;3.92;;;;;;;9.02;73.98;102043.75;5085719;28;20029;-68
2024/03/07 11:32:49;;;;;;;7.60;3.50;;;;;;;8.98;73.69;102048.16;5086334;28;20152;-67